Wilson Maas — 8PSZ — position and weather

sailwx.info

Track history (hours):
 
Tides and Currents Weather Stations Pressure Air Temp Water Temp Dewpoint Dewpoint Depression Visibility Wind Speed Wind Dir Waves Ship Positions

Wilson Maas

Last reported at 2017-Dec-16 14:29 UTC. Time now 2017-Dec-16 14:48 UTC.
Position N 58°09' E 007°59'.

Length 78 m; draft 4.3 m.

Type: Ship. MMSI: 314217000.

Date/timePositionNaut miles runAvg speedWind from/ knotsBaromVisibWave heightAir tempDewpointWater temp
2017-Dec-16 14:29N 58°09' E 007°59'0 0.0
2017-Dec-16 13:59N 58°09' E 007°59'0 0.0
2017-Dec-16 13:29N 58°09' E 007°59'0 0.0
2017-Dec-16 12:59N 58°09' E 007°59'0 0.0
2017-Dec-16 12:29N 58°09' E 007°59'0 0.0
2017-Dec-16 11:59N 58°09' E 007°59'0 0.0
2017-Dec-16 11:29N 58°09' E 007°59'0 0.0
2017-Dec-16 10:59N 58°09' E 007°59'0 0.0
2017-Dec-16 10:29N 58°09' E 007°59'0 0.0
2017-Dec-16 09:59N 58°09' E 007°59'0 0.0
2017-Dec-16 09:29N 58°09' E 007°59'0 0.0
2017-Dec-16 08:59N 58°09' E 007°59'0 0.0
2017-Dec-16 08:29N 58°09' E 007°59'0 0.0
2017-Dec-16 07:59N 58°09' E 007°59'0 0.0
2017-Dec-16 07:29N 58°09' E 007°59'0 0.0
2017-Dec-16 06:59N 58°09' E 007°59'0 0.0
2017-Dec-16 06:26N 58°09' E 007°59'0 0.0
2017-Dec-16 05:59N 58°09' E 007°59'0 0.0
2017-Dec-16 05:29N 58°09' E 007°59'0 0.0
2017-Dec-16 04:59N 58°09' E 007°59'0 0.0
2017-Dec-16 04:29N 58°09' E 007°59'0 0.0
2017-Dec-16 03:59N 58°09' E 007°59'0 0.0
2017-Dec-16 03:29N 58°09' E 007°59'0 0.0
2017-Dec-16 02:59N 58°09' E 007°59'0 0.0
2017-Dec-16 02:29N 58°09' E 007°59'0 0.0
2017-Dec-16 01:59N 58°09' E 007°59'0 0.0
2017-Dec-16 01:29N 58°09' E 007°59'0 0.0
2017-Dec-16 00:59N 58°09' E 007°59'0 0.0
2017-Dec-16 00:29N 58°09' E 007°59'0 0.0
2017-Dec-15 23:59N 58°09' E 007°59'0 0.0
2017-Dec-15 23:29N 58°09' E 007°59'0 0.0
2017-Dec-15 22:59N 58°09' E 007°59'0 0.0
2017-Dec-15 22:29N 58°09' E 007°59'0 0.0
2017-Dec-15 21:59N 58°09' E 007°59'0 0.0
2017-Dec-15 21:29N 58°09' E 007°59'0 0.0
2017-Dec-15 20:56N 58°09' E 007°59'0 0.0
2017-Dec-15 20:29N 58°09' E 007°59'0 0.0
2017-Dec-15 19:59N 58°09' E 007°59'0 0.0
2017-Dec-15 19:29N 58°09' E 007°59'0 0.0
2017-Dec-15 18:59N 58°09' E 007°59'0 0.0
2017-Dec-15 18:29N 58°09' E 007°59'0 0.0
2017-Dec-15 17:59N 58°09' E 007°59'0 0.0
2017-Dec-15 17:29N 58°09' E 007°59'0 0.0
2017-Dec-15 16:59N 58°09' E 007°59'0 0.0
2017-Dec-15 16:29N 58°09' E 007°59'0 0.0
2017-Dec-15 15:59N 58°09' E 007°59'0 0.0
2017-Dec-15 15:29N 58°09' E 007°59'0 0.0
2017-Dec-15 14:59N 58°09' E 007°59'0 0.0
2017-Dec-15 14:29N 58°09' E 007°59'0 0.0
2017-Dec-15 13:59N 58°09' E 007°59'0 0.1
2017-Dec-15 13:29N 58°09' E 007°59'1 1.3
2017-Dec-15 13:00N 58°08' E 007°59'0 0.0
2017-Dec-15 12:30N 58°08' E 007°59'0 0.0
2017-Dec-15 12:00N 58°08' E 007°59'0 0.0
2017-Dec-15 11:30N 58°08' E 007°59'0 0.1
2017-Dec-15 11:00N 58°08' E 007°59'0 0.0
2017-Dec-15 10:30N 58°08' E 007°59'0 0.0
2017-Dec-15 10:00N 58°08' E 007°59'0 0.0
2017-Dec-15 09:30N 58°08' E 007°59'0 0.0
2017-Dec-15 09:00N 58°08' E 007°59'0 0.0
2017-Dec-15 08:30N 58°08' E 007°59'0 0.1
2017-Dec-15 08:00N 58°08' E 007°59'0 0.0
2017-Dec-15 07:30N 58°08' E 007°59'0 0.0
2017-Dec-15 07:00N 58°08' E 007°59'0 0.1
2017-Dec-15 06:30N 58°08' E 007°59'0 0.1
2017-Dec-15 06:00N 58°08' E 007°59'0 0.1
2017-Dec-15 05:30N 58°08' E 007°59'0 0.0
2017-Dec-15 05:00N 58°08' E 007°59'0 0.0
2017-Dec-15 04:30N 58°08' E 007°59'0 0.0
2017-Dec-15 04:00N 58°08' E 007°59'0 0.0
2017-Dec-15 02:30N 58°08' E 007°59'0 0.0
2017-Dec-15 01:00N 58°08' E 007°59'0 0.0
2017-Dec-15 00:30N 58°08' E 007°59'90 5.9
2017-Dec-14 09:17N 57°49' E 010°45'2 8.8
2017-Dec-14 09:01N 57°47' E 010°49'5 9.6
2017-Dec-14 08:31N 57°44' E 010°55'510.0
2017-Dec-14 08:00N 57°40' E 011°02'5 9.9
2017-Dec-14 07:31N 57°37' E 011°09'5 9.9
2017-Dec-14 07:01N 57°34' E 011°16'5 9.9
2017-Dec-14 06:30N 57°31' E 011°23'510.0
2017-Dec-14 06:00N 57°27' E 011°28'510.5
2017-Dec-14 05:30N 57°22' E 011°31'510.2
2017-Dec-14 05:01N 57°17' E 011°34'5 9.9
2017-Dec-14 04:30N 57°12' E 011°37'5 9.6
2017-Dec-14 04:00N 57°08' E 011°40'5 9.7
2017-Dec-14 03:29N 57°03' E 011°43'59 9.4
2017-Dec-13 21:09N 56°09' E 012°29'212.8
2017-Dec-13 21:01N 56°08' E 012°31'612.7
2017-Dec-13 20:31N 56°03' E 012°39'611.2
2017-Dec-13 20:00N 55°58' E 012°42'611.2
2017-Dec-13 19:31N 55°52' E 012°44'510.6
2017-Dec-13 19:01N 55°47' E 012°43'612.1
2017-Dec-13 18:31N 55°41' E 012°41'611.7
2017-Dec-13 18:00N 55°35' E 012°42'510.1
2017-Dec-13 17:30N 55°30' E 012°43'510.0
2017-Dec-13 17:01N 55°25' E 012°42'5 9.8
2017-Dec-13 16:31N 55°21' E 012°41'510.1
2017-Dec-13 16:00N 55°15' E 012°40'510.1
2017-Dec-13 15:30N 55°10' E 012°40'510.2
2017-Dec-13 15:00N 55°05' E 012°41'33 8.2
2017-Dec-13 11:02N 54°35' E 012°20'5 9.2
2017-Dec-13 10:32N 54°31' E 012°17'1 9.3
2017-Dec-13 10:28N 54°30' E 012°16'4 9.3
2017-Dec-13 10:00N 54°26' E 012°13'5 9.3
2017-Dec-13 09:30N 54°23' E 012°08'11 9.0
2017-Dec-13 08:15N 54°12' E 012°05'2 6.7
2017-Dec-13 08:00N 54°10' E 012°06'3 6.0
2017-Dec-13 07:30N 54°07' E 012°06'0 0.2
2017-Dec-13 04:59N 54°07' E 012°05'0 0.0
2017-Dec-13 02:59N 54°07' E 012°05'0 0.0
2017-Dec-13 02:29N 54°07' E 012°05'0 0.0
2017-Dec-12 23:59N 54°07' E 012°05'0 0.0
2017-Dec-12 22:59N 54°07' E 012°05'0 0.0
2017-Dec-12 21:23N 54°07' E 012°05'0 0.0
2017-Dec-12 20:59N 54°07' E 012°05'0 0.0
2017-Dec-12 19:14N 54°07' E 012°05'0 0.0
2017-Dec-12 18:59N 54°07' E 012°05'0 0.0
2017-Dec-12 18:29N 54°07' E 012°05'0 0.0
2017-Dec-12 17:59N 54°07' E 012°05'0 0.0
2017-Dec-12 17:14N 54°07' E 012°05'0 0.0
2017-Dec-12 16:56N 54°07' E 012°05'0 0.0
2017-Dec-12 16:14N 54°07' E 012°05'0 0.0
2017-Dec-12 15:59N 54°07' E 012°05'0 0.0
2017-Dec-12 14:41N 54°07' E 012°05'0 0.0
2017-Dec-12 14:14N 54°07' E 012°05'0 0.0
2017-Dec-12 13:59N 54°07' E 012°05'0 0.0
2017-Dec-12 12:59N 54°07' E 012°05'0 0.0
2017-Dec-12 10:59N 54°07' E 012°05'0 0.0
2017-Dec-12 09:29N 54°07' E 012°05'0 0.0
2017-Dec-12 08:29N 54°07' E 012°05'0 0.0
2017-Dec-12 03:44N 54°07' E 012°05'0 0.0
2017-Dec-12 03:29N 54°07' E 012°05'0 0.0
2017-Dec-12 02:17N 54°07' E 012°05'0 0.0
2017-Dec-12 01:59N 54°07' E 012°05'0 0.0
2017-Dec-12 01:29N 54°07' E 012°05'0 0.0
2017-Dec-12 00:59N 54°07' E 012°05'0 0.0
2017-Dec-11 19:26N 54°07' E 012°05'0 0.0
2017-Dec-11 17:41N 54°07' E 012°05'0 0.0
2017-Dec-11 17:26N 54°07' E 012°05'0 0.0
2017-Dec-11 16:50N 54°07' E 012°05'0 0.0
2017-Dec-11 13:53N 54°07' E 012°05'0 0.0
2017-Dec-11 13:08N 54°07' E 012°05'0 0.0
2017-Dec-11 12:59N 54°07' E 012°05'0 0.0
2017-Dec-11 10:23N 54°07' E 012°05'0 0.0
2017-Dec-11 09:14N 54°07' E 012°05'0 0.0
2017-Dec-11 08:59N 54°07' E 012°05'0 0.0
2017-Dec-11 07:44N 54°07' E 012°05'0 0.0
2017-Dec-11 07:29N 54°07' E 012°05'0 0.0
2017-Dec-11 06:59N 54°07' E 012°05'0 0.0
2017-Dec-11 06:29N 54°07' E 012°05'0 0.0
2017-Dec-11 04:11N 54°07' E 012°05'0 0.0
2017-Dec-11 03:59N 54°07' E 012°05'0 0.0
2017-Dec-11 02:29N 54°07' E 012°05'0 0.0
2017-Dec-11 00:59N 54°07' E 012°05'0 0.0
2017-Dec-10 22:29N 54°07' E 012°05'0 0.0
2017-Dec-10 21:29N 54°07' E 012°05'0 0.0
2017-Dec-10 20:59N 54°07' E 012°05'0 0.0
2017-Dec-10 20:26N 54°07' E 012°05'0 0.0
2017-Dec-10 18:44N 54°07' E 012°05'0 0.0
2017-Dec-10 18:29N 54°07' E 012°05'0 0.0
2017-Dec-10 16:23N 54°07' E 012°05'0 0.0
2017-Dec-10 15:05N 54°07' E 012°05'0 0.0
2017-Dec-10 14:59N 54°07' E 012°05'0 0.0
2017-Dec-10 14:29N 54°07' E 012°05'0 0.0
2017-Dec-10 12:38N 54°07' E 012°05'0 0.0
2017-Dec-10 12:26N 54°07' E 012°05'0 0.0
2017-Dec-10 10:29N 54°07' E 012°05'0 0.0
2017-Dec-10 09:59N 54°07' E 012°05'0 0.0
2017-Dec-10 07:17N 54°07' E 012°05'0 0.0
2017-Dec-10 05:29N 54°07' E 012°05'0 0.0
2017-Dec-10 00:44N 54°07' E 012°05'0 0.0
2017-Dec-10 00:29N 54°07' E 012°05'0 0.0
2017-Dec-09 21:14N 54°07' E 012°05'0 0.0
2017-Dec-09 20:56N 54°07' E 012°05'0 0.0
2017-Dec-09 19:59N 54°07' E 012°05'0 0.0
2017-Dec-09 18:11N 54°07' E 012°05'0 0.0
2017-Dec-09 17:59N 54°07' E 012°05'0 0.0
2017-Dec-09 16:29N 54°07' E 012°05'0 0.0
2017-Dec-09 15:59N 54°07' E 012°05'0 0.0
2017-Dec-09 13:20N 54°07' E 012°05'0 0.0
2017-Dec-09 12:59N 54°07' E 012°05'0 0.0
2017-Dec-09 12:29N 54°07' E 012°05'0 0.0
2017-Dec-09 11:59N 54°07' E 012°05'0 0.0
2017-Dec-09 11:29N 54°07' E 012°05'0 0.0
2017-Dec-09 10:59N 54°07' E 012°05'0 0.0
2017-Dec-09 10:23N 54°07' E 012°05'0 0.0
2017-Dec-09 08:35N 54°07' E 012°05'0 0.0
2017-Dec-09 08:23N 54°07' E 012°05'0 0.0
2017-Dec-09 07:59N 54°07' E 012°05'0 0.0
2017-Dec-09 07:11N 54°07' E 012°05'0 0.0
2017-Dec-09 06:56N 54°07' E 012°05'0 0.0
2017-Dec-09 04:11N 54°07' E 012°05'0 0.0
2017-Dec-09 03:53N 54°07' E 012°05'0 0.0
2017-Dec-08 19:36N 54°07' E 012°05'0 0.0
2017-Dec-08 19:29N 54°07' E 012°05'0 0.0
2017-Dec-08 17:14N 54°07' E 012°05'0 0.0
2017-Dec-08 16:53N 54°07' E 012°05'0 0.0
2017-Dec-08 09:59N 54°07' E 012°05'0 0.0
2017-Dec-08 01:44N 54°07' E 012°05'0 0.0
2017-Dec-08 01:29N 54°07' E 012°05'0 0.0
2017-Dec-07 19:59N 54°07' E 012°05'0 0.0
2017-Dec-07 18:59N 54°07' E 012°05'0 0.0
2017-Dec-07 16:59N 54°07' E 012°05'0 0.0
2017-Dec-07 15:59N 54°07' E 012°05'0 0.0
2017-Dec-07 14:59N 54°07' E 012°05'0 0.0
2017-Dec-07 09:11N 54°07' E 012°05'0 0.2
2017-Dec-07 07:26N 54°07' E 012°05'2 5.1
2017-Dec-07 07:00N 54°09' E 012°06'3 7.1
2017-Dec-07 06:30N 54°13' E 012°04'7 9.8
2017-Dec-07 05:46N 54°19' E 011°60'3 9.6
2017-Dec-07 05:30N 54°22' E 011°59'4 8.0
2017-Dec-07 05:00N 54°26' E 012°00'4 8.5
2017-Dec-07 04:31N 54°27' E 012°07'4 8.3
2017-Dec-07 04:00N 54°30' E 012°11'5 9.0
2017-Dec-07 03:30N 54°35' E 012°13'4 8.5
2017-Dec-07 02:59N 54°38' E 012°18'4 9.2
2017-Dec-07 02:30N 54°41' E 012°24'5 9.2
2017-Dec-07 02:01N 54°43' E 012°31'5 9.1
2017-Dec-07 01:31N 54°46' E 012°37'5 9.1
2017-Dec-07 01:01N 54°49' E 012°44'6 8.9
2017-Dec-07 00:22N 54°54' E 012°43'17 9.0
2017-Dec-06 22:30N 55°11' E 012°38'4 8.5
2017-Dec-06 22:00N 55°15' E 012°38'4 8.5
2017-Dec-06 21:30N 55°19' E 012°38'4 8.8
2017-Dec-06 21:01N 55°24' E 012°39'  
Track history (hours):
 
Tides and Currents Weather Stations Pressure Air Temp Water Temp Dewpoint Dewpoint Depression Visibility Wind Speed Wind Dir Waves Ship Positions

Wilson Maas

Last reported at 2017-Dec-16 14:29 UTC. Time now 2017-Dec-16 14:48 UTC.
Position N 58°09' E 007°59'.

Length 78 m; draft 4.3 m.

Type: Ship. MMSI: 314217000.

Date/timePositionNaut miles runAvg speedWind from/ knotsBaromVisibWave heightAir tempDewpointWater temp
2017-Dec-16 14:29N 58°09' E 007°59'0 0.0
2017-Dec-16 13:59N 58°09' E 007°59'0 0.0
2017-Dec-16 13:29N 58°09' E 007°59'0 0.0
2017-Dec-16 12:59N 58°09' E 007°59'0 0.0
2017-Dec-16 12:29N 58°09' E 007°59'0 0.0
2017-Dec-16 11:59N 58°09' E 007°59'0 0.0
2017-Dec-16 11:29N 58°09' E 007°59'0 0.0
2017-Dec-16 10:59N 58°09' E 007°59'0 0.0
2017-Dec-16 10:29N 58°09' E 007°59'0 0.0
2017-Dec-16 09:59N 58°09' E 007°59'0 0.0
2017-Dec-16 09:29N 58°09' E 007°59'0 0.0
2017-Dec-16 08:59N 58°09' E 007°59'0 0.0
2017-Dec-16 08:29N 58°09' E 007°59'0 0.0
2017-Dec-16 07:59N 58°09' E 007°59'0 0.0
2017-Dec-16 07:29N 58°09' E 007°59'0 0.0
2017-Dec-16 06:59N 58°09' E 007°59'0 0.0
2017-Dec-16 06:26N 58°09' E 007°59'0 0.0
2017-Dec-16 05:59N 58°09' E 007°59'0 0.0
2017-Dec-16 05:29N 58°09' E 007°59'0 0.0
2017-Dec-16 04:59N 58°09' E 007°59'0 0.0
2017-Dec-16 04:29N 58°09' E 007°59'0 0.0
2017-Dec-16 03:59N 58°09' E 007°59'0 0.0
2017-Dec-16 03:29N 58°09' E 007°59'0 0.0
2017-Dec-16 02:59N 58°09' E 007°59'0 0.0
2017-Dec-16 02:29N 58°09' E 007°59'0 0.0
2017-Dec-16 01:59N 58°09' E 007°59'0 0.0
2017-Dec-16 01:29N 58°09' E 007°59'0 0.0
2017-Dec-16 00:59N 58°09' E 007°59'0 0.0
2017-Dec-16 00:29N 58°09' E 007°59'0 0.0
2017-Dec-15 23:59N 58°09' E 007°59'0 0.0
2017-Dec-15 23:29N 58°09' E 007°59'0 0.0
2017-Dec-15 22:59N 58°09' E 007°59'0 0.0
2017-Dec-15 22:29N 58°09' E 007°59'0 0.0
2017-Dec-15 21:59N 58°09' E 007°59'0 0.0
2017-Dec-15 21:29N 58°09' E 007°59'0 0.0
2017-Dec-15 20:56N 58°09' E 007°59'0 0.0
2017-Dec-15 20:29N 58°09' E 007°59'0 0.0
2017-Dec-15 19:59N 58°09' E 007°59'0 0.0
2017-Dec-15 19:29N 58°09' E 007°59'0 0.0
2017-Dec-15 18:59N 58°09' E 007°59'0 0.0
2017-Dec-15 18:29N 58°09' E 007°59'0 0.0
2017-Dec-15 17:59N 58°09' E 007°59'0 0.0
2017-Dec-15 17:29N 58°09' E 007°59'0 0.0
2017-Dec-15 16:59N 58°09' E 007°59'0 0.0
2017-Dec-15 16:29N 58°09' E 007°59'0 0.0
2017-Dec-15 15:59N 58°09' E 007°59'0 0.0
2017-Dec-15 15:29N 58°09' E 007°59'0 0.0
2017-Dec-15 14:59N 58°09' E 007°59'0 0.0
2017-Dec-15 14:29N 58°09' E 007°59'0 0.0
2017-Dec-15 13:59N 58°09' E 007°59'0 0.1
2017-Dec-15 13:29N 58°09' E 007°59'1 1.3
2017-Dec-15 13:00N 58°08' E 007°59'0 0.0
2017-Dec-15 12:30N 58°08' E 007°59'0 0.0
2017-Dec-15 12:00N 58°08' E 007°59'0 0.0
2017-Dec-15 11:30N 58°08' E 007°59'0 0.1
2017-Dec-15 11:00N 58°08' E 007°59'0 0.0
2017-Dec-15 10:30N 58°08' E 007°59'0 0.0
2017-Dec-15 10:00N 58°08' E 007°59'0 0.0
2017-Dec-15 09:30N 58°08' E 007°59'0 0.0
2017-Dec-15 09:00N 58°08' E 007°59'0 0.0
2017-Dec-15 08:30N 58°08' E 007°59'0 0.1
2017-Dec-15 08:00N 58°08' E 007°59'0 0.0
2017-Dec-15 07:30N 58°08' E 007°59'0 0.0
2017-Dec-15 07:00N 58°08' E 007°59'0 0.1
2017-Dec-15 06:30N 58°08' E 007°59'0 0.1
2017-Dec-15 06:00N 58°08' E 007°59'0 0.1
2017-Dec-15 05:30N 58°08' E 007°59'0 0.0
2017-Dec-15 05:00N 58°08' E 007°59'0 0.0
2017-Dec-15 04:30N 58°08' E 007°59'0 0.0
2017-Dec-15 04:00N 58°08' E 007°59'0 0.0
2017-Dec-15 02:30N 58°08' E 007°59'0 0.0
2017-Dec-15 01:00N 58°08' E 007°59'0 0.0
2017-Dec-15 00:30N 58°08' E 007°59'90 5.9
2017-Dec-14 09:17N 57°49' E 010°45'2 8.8
2017-Dec-14 09:01N 57°47' E 010°49'5 9.6
2017-Dec-14 08:31N 57°44' E 010°55'510.0
2017-Dec-14 08:00N 57°40' E 011°02'5 9.9
2017-Dec-14 07:31N 57°37' E 011°09'5 9.9
2017-Dec-14 07:01N 57°34' E 011°16'5 9.9
2017-Dec-14 06:30N 57°31' E 011°23'510.0
2017-Dec-14 06:00N 57°27' E 011°28'510.5
2017-Dec-14 05:30N 57°22' E 011°31'510.2
2017-Dec-14 05:01N 57°17' E 011°34'5 9.9
2017-Dec-14 04:30N 57°12' E 011°37'5 9.6
2017-Dec-14 04:00N 57°08' E 011°40'5 9.7
2017-Dec-14 03:29N 57°03' E 011°43'59 9.4
2017-Dec-13 21:09N 56°09' E 012°29'212.8
2017-Dec-13 21:01N 56°08' E 012°31'612.7
2017-Dec-13 20:31N 56°03' E 012°39'611.2
2017-Dec-13 20:00N 55°58' E 012°42'611.2
2017-Dec-13 19:31N 55°52' E 012°44'510.6
2017-Dec-13 19:01N 55°47' E 012°43'612.1
2017-Dec-13 18:31N 55°41' E 012°41'611.7
2017-Dec-13 18:00N 55°35' E 012°42'510.1
2017-Dec-13 17:30N 55°30' E 012°43'510.0
2017-Dec-13 17:01N 55°25' E 012°42'5 9.8
2017-Dec-13 16:31N 55°21' E 012°41'510.1
2017-Dec-13 16:00N 55°15' E 012°40'510.1
2017-Dec-13 15:30N 55°10' E 012°40'510.2
2017-Dec-13 15:00N 55°05' E 012°41'33 8.2
2017-Dec-13 11:02N 54°35' E 012°20'5 9.2
2017-Dec-13 10:32N 54°31' E 012°17'1 9.3
2017-Dec-13 10:28N 54°30' E 012°16'4 9.3
2017-Dec-13 10:00N 54°26' E 012°13'5 9.3
2017-Dec-13 09:30N 54°23' E 012°08'11 9.0
2017-Dec-13 08:15N 54°12' E 012°05'2 6.7
2017-Dec-13 08:00N 54°10' E 012°06'3 6.0
2017-Dec-13 07:30N 54°07' E 012°06'0 0.2
2017-Dec-13 04:59N 54°07' E 012°05'0 0.0
2017-Dec-13 02:59N 54°07' E 012°05'0 0.0
2017-Dec-13 02:29N 54°07' E 012°05'0 0.0
2017-Dec-12 23:59N 54°07' E 012°05'0 0.0
2017-Dec-12 22:59N 54°07' E 012°05'0 0.0
2017-Dec-12 21:23N 54°07' E 012°05'0 0.0
2017-Dec-12 20:59N 54°07' E 012°05'0 0.0
2017-Dec-12 19:14N 54°07' E 012°05'0 0.0
2017-Dec-12 18:59N 54°07' E 012°05'0 0.0
2017-Dec-12 18:29N 54°07' E 012°05'0 0.0
2017-Dec-12 17:59N 54°07' E 012°05'0 0.0
2017-Dec-12 17:14N 54°07' E 012°05'0 0.0
2017-Dec-12 16:56N 54°07' E 012°05'0 0.0
2017-Dec-12 16:14N 54°07' E 012°05'0 0.0
2017-Dec-12 15:59N 54°07' E 012°05'0 0.0
2017-Dec-12 14:41N 54°07' E 012°05'0 0.0
2017-Dec-12 14:14N 54°07' E 012°05'0 0.0
2017-Dec-12 13:59N 54°07' E 012°05'0 0.0
2017-Dec-12 12:59N 54°07' E 012°05'0 0.0
2017-Dec-12 10:59N 54°07' E 012°05'0 0.0
2017-Dec-12 09:29N 54°07' E 012°05'0 0.0
2017-Dec-12 08:29N 54°07' E 012°05'0 0.0
2017-Dec-12 03:44N 54°07' E 012°05'0 0.0
2017-Dec-12 03:29N 54°07' E 012°05'0 0.0
2017-Dec-12 02:17N 54°07' E 012°05'0 0.0
2017-Dec-12 01:59N 54°07' E 012°05'0 0.0
2017-Dec-12 01:29N 54°07' E 012°05'0 0.0
2017-Dec-12 00:59N 54°07' E 012°05'0 0.0
2017-Dec-11 19:26N 54°07' E 012°05'0 0.0
2017-Dec-11 17:41N 54°07' E 012°05'0 0.0
2017-Dec-11 17:26N 54°07' E 012°05'0 0.0
2017-Dec-11 16:50N 54°07' E 012°05'0 0.0
2017-Dec-11 13:53N 54°07' E 012°05'0 0.0
2017-Dec-11 13:08N 54°07' E 012°05'0 0.0
2017-Dec-11 12:59N 54°07' E 012°05'0 0.0
2017-Dec-11 10:23N 54°07' E 012°05'0 0.0
2017-Dec-11 09:14N 54°07' E 012°05'0 0.0
2017-Dec-11 08:59N 54°07' E 012°05'0 0.0
2017-Dec-11 07:44N 54°07' E 012°05'0 0.0
2017-Dec-11 07:29N 54°07' E 012°05'0 0.0
2017-Dec-11 06:59N 54°07' E 012°05'0 0.0
2017-Dec-11 06:29N 54°07' E 012°05'0 0.0
2017-Dec-11 04:11N 54°07' E 012°05'0 0.0
2017-Dec-11 03:59N 54°07' E 012°05'0 0.0
2017-Dec-11 02:29N 54°07' E 012°05'0 0.0
2017-Dec-11 00:59N 54°07' E 012°05'0 0.0
2017-Dec-10 22:29N 54°07' E 012°05'0 0.0
2017-Dec-10 21:29N 54°07' E 012°05'0 0.0
2017-Dec-10 20:59N 54°07' E 012°05'0 0.0
2017-Dec-10 20:26N 54°07' E 012°05'0 0.0
2017-Dec-10 18:44N 54°07' E 012°05'0 0.0
2017-Dec-10 18:29N 54°07' E 012°05'0 0.0
2017-Dec-10 16:23N 54°07' E 012°05'0 0.0
2017-Dec-10 15:05N 54°07' E 012°05'0 0.0
2017-Dec-10 14:59N 54°07' E 012°05'0 0.0
2017-Dec-10 14:29N 54°07' E 012°05'0 0.0
2017-Dec-10 12:38N 54°07' E 012°05'0 0.0
2017-Dec-10 12:26N 54°07' E 012°05'0 0.0
2017-Dec-10 10:29N 54°07' E 012°05'0 0.0
2017-Dec-10 09:59N 54°07' E 012°05'0 0.0
2017-Dec-10 07:17N 54°07' E 012°05'0 0.0
2017-Dec-10 05:29N 54°07' E 012°05'0 0.0
2017-Dec-10 00:44N 54°07' E 012°05'0 0.0
2017-Dec-10 00:29N 54°07' E 012°05'0 0.0
2017-Dec-09 21:14N 54°07' E 012°05'0 0.0
2017-Dec-09 20:56N 54°07' E 012°05'0 0.0
2017-Dec-09 19:59N 54°07' E 012°05'0 0.0
2017-Dec-09 18:11N 54°07' E 012°05'0 0.0
2017-Dec-09 17:59N 54°07' E 012°05'0 0.0
2017-Dec-09 16:29N 54°07' E 012°05'0 0.0
2017-Dec-09 15:59N 54°07' E 012°05'0 0.0
2017-Dec-09 13:20N 54°07' E 012°05'0 0.0
2017-Dec-09 12:59N 54°07' E 012°05'0 0.0
2017-Dec-09 12:29N 54°07' E 012°05'0 0.0
2017-Dec-09 11:59N 54°07' E 012°05'0 0.0
2017-Dec-09 11:29N 54°07' E 012°05'0 0.0
2017-Dec-09 10:59N 54°07' E 012°05'0 0.0
2017-Dec-09 10:23N 54°07' E 012°05'0 0.0
2017-Dec-09 08:35N 54°07' E 012°05'0 0.0
2017-Dec-09 08:23N 54°07' E 012°05'0 0.0
2017-Dec-09 07:59N 54°07' E 012°05'0 0.0
2017-Dec-09 07:11N 54°07' E 012°05'0 0.0
2017-Dec-09 06:56N 54°07' E 012°05'0 0.0
2017-Dec-09 04:11N 54°07' E 012°05'0 0.0
2017-Dec-09 03:53N 54°07' E 012°05'0 0.0
2017-Dec-08 19:36N 54°07' E 012°05'0 0.0
2017-Dec-08 19:29N 54°07' E 012°05'0 0.0
2017-Dec-08 17:14N 54°07' E 012°05'0 0.0
2017-Dec-08 16:53N 54°07' E 012°05'0 0.0
2017-Dec-08 09:59N 54°07' E 012°05'0 0.0
2017-Dec-08 01:44N 54°07' E 012°05'0 0.0
2017-Dec-08 01:29N 54°07' E 012°05'0 0.0
2017-Dec-07 19:59N 54°07' E 012°05'0 0.0
2017-Dec-07 18:59N 54°07' E 012°05'0 0.0
2017-Dec-07 16:59N 54°07' E 012°05'0 0.0
2017-Dec-07 15:59N 54°07' E 012°05'0 0.0
2017-Dec-07 14:59N 54°07' E 012°05'0 0.0
2017-Dec-07 09:11N 54°07' E 012°05'0 0.2
2017-Dec-07 07:26N 54°07' E 012°05'2 5.1
2017-Dec-07 07:00N 54°09' E 012°06'3 7.1
2017-Dec-07 06:30N 54°13' E 012°04'7 9.8
2017-Dec-07 05:46N 54°19' E 011°60'3 9.6
2017-Dec-07 05:30N 54°22' E 011°59'4 8.0
2017-Dec-07 05:00N 54°26' E 012°00'4 8.5
2017-Dec-07 04:31N 54°27' E 012°07'4 8.3
2017-Dec-07 04:00N 54°30' E 012°11'5 9.0
2017-Dec-07 03:30N 54°35' E 012°13'4 8.5
2017-Dec-07 02:59N 54°38' E 012°18'4 9.2
2017-Dec-07 02:30N 54°41' E 012°24'5 9.2
2017-Dec-07 02:01N 54°43' E 012°31'5 9.1
2017-Dec-07 01:31N 54°46' E 012°37'5 9.1
2017-Dec-07 01:01N 54°49' E 012°44'6 8.9
2017-Dec-07 00:22N 54°54' E 012°43'17 9.0
2017-Dec-06 22:30N 55°11' E 012°38'4 8.5
2017-Dec-06 22:00N 55°15' E 012°38'4 8.5
2017-Dec-06 21:30N 55°19' E 012°38'4 8.8
2017-Dec-06 21:01N 55°24' E 012°39'  

Dump ship's entire track history